sensor_id;sensor_type;location;lat;lon;timestamp;temperature;humidity
19363;DHT22;9817;50.80926400;5.16316200;2023-10-09T00:02:06;17.00;99.90
19363;DHT22;9817;50.80926400;5.16316200;2023-10-09T00:04:32;17.00;99.90
19363;DHT22;9817;50.80926400;5.16316200;2023-10-09T00:07:04;17.00;99.90
19363;DHT22;9817;50.80926400;5.16316200;2023-10-09T00:09:37;17.00;99.90
19363;DHT22;9817;50.80926400;5.16316200;2023-10-09T00:12:20;17.10;99.90
19363;DHT22;9817;50.80926400;5.16316200;2023-10-09T00:14:51;17.10;99.90
19363;DHT22;9817;50.80926400;5.16316200;2023-10-09T00:17:20;17.10;99.90
19363;DHT22;9817;50.80926400;5.16316200;2023-10-09T00:19:47;17.00;99.90
19363;DHT22;9817;50.80926400;5.16316200;2023-10-09T00:22:17;17.00;99.90
19363;DHT22;9817;50.80926400;5.16316200;2023-10-09T00:24:54;17.00;99.90
19363;DHT22;9817;50.80926400;5.16316200;2023-10-09T00:27:37;17.00;99.90
19363;DHT22;9817;50.80926400;5.16316200;2023-10-09T00:30:07;17.10;99.90
19363;DHT22;9817;50.80926400;5.16316200;2023-10-09T00:32:32;17.00;99.90
19363;DHT22;9817;50.80926400;5.16316200;2023-10-09T00:34:59;17.00;99.90
19363;DHT22;9817;50.80926400;5.16316200;2023-10-09T00:37:45;17.00;99.90
19363;DHT22;9817;50.80926400;5.16316200;2023-10-09T00:40:11;17.00;99.90
19363;DHT22;9817;50.80926400;5.16316200;2023-10-09T00:42:47;16.80;99.90
19363;DHT22;9817;50.80926400;5.16316200;2023-10-09T00:45:14;16.90;99.90
19363;DHT22;9817;50.80926400;5.16316200;2023-10-09T00:47:51;16.80;99.90
19363;DHT22;9817;50.80926400;5.16316200;2023-10-09T00:50:17;16.80;99.90
19363;DHT22;9817;50.80926400;5.16316200;2023-10-09T00:52:52;16.90;99.90
19363;DHT22;9817;50.80926400;5.16316200;2023-10-09T00:55:26;16.90;99.90
19363;DHT22;9817;50.80926400;5.16316200;2023-10-09T00:58:12;16.90;99.90
19363;DHT22;9817;50.80926400;5.16316200;2023-10-09T01:00:42;17.00;99.90
19363;DHT22;9817;50.80926400;5.16316200;2023-10-09T01:03:18;17.00;99.90
19363;DHT22;9817;50.80926400;5.16316200;2023-10-09T01:05:58;17.00;99.90
19363;DHT22;9817;50.80926400;5.16316200;2023-10-09T01:08:38;17.10;99.90
19363;DHT22;9817;50.80926400;5.16316200;2023-10-09T01:13:41;17.20;99.90
19363;DHT22;9817;50.80926400;5.16316200;2023-10-09T01:16:16;17.20;99.90
19363;DHT22;9817;50.80926400;5.16316200;2023-10-09T01:18:43;17.20;99.90
19363;DHT22;9817;50.80926400;5.16316200;2023-10-09T01:21:10;17.30;99.90
19363;DHT22;9817;50.80926400;5.16316200;2023-10-09T01:23:46;17.30;99.90
19363;DHT22;9817;50.80926400;5.16316200;2023-10-09T01:26:31;17.30;99.90
19363;DHT22;9817;50.80926400;5.16316200;2023-10-09T01:29:08;17.30;99.90
19363;DHT22;9817;50.80926400;5.16316200;2023-10-09T01:31:54;17.30;99.90
19363;DHT22;9817;50.80926400;5.16316200;2023-10-09T01:34:31;17.30;99.90
19363;DHT22;9817;50.80926400;5.16316200;2023-10-09T01:37:21;17.30;99.90
19363;DHT22;9817;50.80926400;5.16316200;2023-10-09T01:39:57;17.30;99.90
19363;DHT22;9817;50.80926400;5.16316200;2023-10-09T01:42:24;17.30;99.90
19363;DHT22;9817;50.80926400;5.16316200;2023-10-09T01:45:00;17.30;99.90
19363;DHT22;9817;50.80926400;5.16316200;2023-10-09T01:47:41;17.30;99.90
19363;DHT22;9817;50.80926400;5.16316200;2023-10-09T01:50:11;17.30;99.90
19363;DHT22;9817;50.80926400;5.16316200;2023-10-09T01:52:46;17.40;99.90
19363;DHT22;9817;50.80926400;5.16316200;2023-10-09T01:55:11;17.50;99.90
19363;DHT22;9817;50.80926400;5.16316200;2023-10-09T01:57:59;17.40;99.90
19363;DHT22;9817;50.80926400;5.16316200;2023-10-09T02:00:33;17.50;99.90
19363;DHT22;9817;50.80926400;5.16316200;2023-10-09T02:03:07;17.40;99.90
19363;DHT22;9817;50.80926400;5.16316200;2023-10-09T02:05:38;17.40;99.90
19363;DHT22;9817;50.80926400;5.16316200;2023-10-09T02:08:05;17.50;99.90
19363;DHT22;9817;50.80926400;5.16316200;2023-10-09T02:10:31;17.50;99.90
19363;DHT22;9817;50.80926400;5.16316200;2023-10-09T02:13:02;17.60;99.90
19363;DHT22;9817;50.80926400;5.16316200;2023-10-09T02:15:38;17.60;99.90
19363;DHT22;9817;50.80926400;5.16316200;2023-10-09T02:18:11;17.60;99.90
19363;DHT22;9817;50.80926400;5.16316200;2023-10-09T02:20:49;17.60;99.90
19363;DHT22;9817;50.80926400;5.16316200;2023-10-09T02:23:30;17.50;99.90
19363;DHT22;9817;50.80926400;5.16316200;2023-10-09T02:26:08;17.60;99.90
19363;DHT22;9817;50.80926400;5.16316200;2023-10-09T02:29:12;17.60;99.90
19363;DHT22;9817;50.80926400;5.16316200;2023-10-09T02:31:37;17.60;99.90
19363;DHT22;9817;50.80926400;5.16316200;2023-10-09T02:34:07;17.50;99.90
19363;DHT22;9817;50.80926400;5.16316200;2023-10-09T02:36:36;17.50;99.90
19363;DHT22;9817;50.80926400;5.16316200;2023-10-09T02:39:15;17.50;99.90
19363;DHT22;9817;50.80926400;5.16316200;2023-10-09T02:41:55;17.50;99.90
19363;DHT22;9817;50.80926400;5.16316200;2023-10-09T02:44:27;17.50;99.90
19363;DHT22;9817;50.80926400;5.16316200;2023-10-09T02:47:00;17.60;99.90
19363;DHT22;9817;50.80926400;5.16316200;2023-10-09T02:49:30;17.60;99.90
19363;DHT22;9817;50.80926400;5.16316200;2023-10-09T02:51:56;17.70;99.90
19363;DHT22;9817;50.80926400;5.16316200;2023-10-09T02:54:22;17.70;99.90
19363;DHT22;9817;50.80926400;5.16316200;2023-10-09T02:56:51;17.70;99.90
19363;DHT22;9817;50.80926400;5.16316200;2023-10-09T02:59:43;17.60;99.90
19363;DHT22;9817;50.80926400;5.16316200;2023-10-09T03:02:10;17.60;99.90
19363;DHT22;9817;50.80926400;5.16316200;2023-10-09T03:04:36;17.60;99.90
19363;DHT22;9817;50.80926400;5.16316200;2023-10-09T03:07:04;17.60;99.90
19363;DHT22;9817;50.80926400;5.16316200;2023-10-09T03:09:30;17.60;99.90
19363;DHT22;9817;50.80926400;5.16316200;2023-10-09T03:11:59;17.50;99.90
19363;DHT22;9817;50.80926400;5.16316200;2023-10-09T03:14:32;17.50;99.90
19363;DHT22;9817;50.80926400;5.16316200;2023-10-09T03:17:00;17.40;99.90
19363;DHT22;9817;50.80926400;5.16316200;2023-10-09T03:19:27;17.40;99.90
19363;DHT22;9817;50.80926400;5.16316200;2023-10-09T03:21:54;17.40;99.90
19363;DHT22;9817;50.80926400;5.16316200;2023-10-09T03:24:21;17.30;99.90
19363;DHT22;9817;50.80926400;5.16316200;2023-10-09T03:26:48;17.30;99.90
19363;DHT22;9817;50.80926400;5.16316200;2023-10-09T03:29:15;17.40;99.90
19363;DHT22;9817;50.80926400;5.16316200;2023-10-09T03:31:41;17.30;99.90
19363;DHT22;9817;50.80926400;5.16316200;2023-10-09T03:34:08;17.30;99.90
19363;DHT22;9817;50.80926400;5.16316200;2023-10-09T03:36:36;17.30;99.90
19363;DHT22;9817;50.80926400;5.16316200;2023-10-09T03:39:05;17.30;99.90
19363;DHT22;9817;50.80926400;5.16316200;2023-10-09T03:41:50;17.30;99.90
19363;DHT22;9817;50.80926400;5.16316200;2023-10-09T03:44:15;17.30;99.90
19363;DHT22;9817;50.80926400;5.16316200;2023-10-09T03:46:46;17.30;99.90
19363;DHT22;9817;50.80926400;5.16316200;2023-10-09T03:49:12;17.20;99.90
19363;DHT22;9817;50.80926400;5.16316200;2023-10-09T03:51:39;17.20;99.90
19363;DHT22;9817;50.80926400;5.16316200;2023-10-09T03:54:05;17.30;99.90
19363;DHT22;9817;50.80926400;5.16316200;2023-10-09T03:56:34;17.40;99.90
19363;DHT22;9817;50.80926400;5.16316200;2023-10-09T03:59:00;17.40;99.90
19363;DHT22;9817;50.80926400;5.16316200;2023-10-09T04:01:30;17.30;99.90
19363;DHT22;9817;50.80926400;5.16316200;2023-10-09T04:04:04;17.20;99.90
19363;DHT22;9817;50.80926400;5.16316200;2023-10-09T04:06:32;17.30;99.90
19363;DHT22;9817;50.80926400;5.16316200;2023-10-09T04:09:06;17.30;99.90
19363;DHT22;9817;50.80926400;5.16316200;2023-10-09T04:11:45;17.30;99.90
19363;DHT22;9817;50.80926400;5.16316200;2023-10-09T04:14:16;17.40;99.90
19363;DHT22;9817;50.80926400;5.16316200;2023-10-09T04:17:00;17.30;99.90
19363;DHT22;9817;50.80926400;5.16316200;2023-10-09T04:19:30;17.30;99.90
19363;DHT22;9817;50.80926400;5.16316200;2023-10-09T04:22:04;17.30;99.90
19363;DHT22;9817;50.80926400;5.16316200;2023-10-09T04:24:33;17.40;99.90
19363;DHT22;9817;50.80926400;5.16316200;2023-10-09T04:27:07;17.40;99.90
19363;DHT22;9817;50.80926400;5.16316200;2023-10-09T04:29:34;17.40;99.90
19363;DHT22;9817;50.80926400;5.16316200;2023-10-09T04:32:12;17.40;99.90
19363;DHT22;9817;50.80926400;5.16316200;2023-10-09T04:34:42;17.40;99.90
19363;DHT22;9817;50.80926400;5.16316200;2023-10-09T04:37:43;17.40;99.90
19363;DHT22;9817;50.80926400;5.16316200;2023-10-09T04:40:10;17.30;99.90
19363;DHT22;9817;50.80926400;5.16316200;2023-10-09T04:42:56;17.40;99.90
19363;DHT22;9817;50.80926400;5.16316200;2023-10-09T04:45:24;17.30;99.90
19363;DHT22;9817;50.80926400;5.16316200;2023-10-09T04:48:09;17.30;99.90
19363;DHT22;9817;50.80926400;5.16316200;2023-10-09T04:50:36;17.30;99.90
19363;DHT22;9817;50.80926400;5.16316200;2023-10-09T04:53:12;17.30;99.90
19363;DHT22;9817;50.80926400;5.16316200;2023-10-09T04:55:44;17.20;99.90
19363;DHT22;9817;50.80926400;5.16316200;2023-10-09T04:58:20;17.20;99.90
19363;DHT22;9817;50.80926400;5.16316200;2023-10-09T05:00:55;17.20;99.90
19363;DHT22;9817;50.80926400;5.16316200;2023-10-09T05:03:23;17.10;99.90
19363;DHT22;9817;50.80926400;5.16316200;2023-10-09T05:05:52;17.20;99.90
19363;DHT22;9817;50.80926400;5.16316200;2023-10-09T05:08:25;17.30;99.90
19363;DHT22;9817;50.80926400;5.16316200;2023-10-09T05:13:24;17.30;99.90
19363;DHT22;9817;50.80926400;5.16316200;2023-10-09T05:16:15;17.30;99.90
19363;DHT22;9817;50.80926400;5.16316200;2023-10-09T05:18:47;17.20;99.90
19363;DHT22;9817;50.80926400;5.16316200;2023-10-09T05:23:57;17.30;99.90
19363;DHT22;9817;50.80926400;5.16316200;2023-10-09T05:26:42;17.30;99.90
19363;DHT22;9817;50.80926400;5.16316200;2023-10-09T05:29:24;17.10;99.90
19363;DHT22;9817;50.80926400;5.16316200;2023-10-09T05:32:00;17.10;99.90
19363;DHT22;9817;50.80926400;5.16316200;2023-10-09T05:34:53;17.10;99.90
19363;DHT22;9817;50.80926400;5.16316200;2023-10-09T05:37:25;17.20;99.90
19363;DHT22;9817;50.80926400;5.16316200;2023-10-09T05:39:55;17.30;99.90
19363;DHT22;9817;50.80926400;5.16316200;2023-10-09T05:42:34;17.30;99.90
19363;DHT22;9817;50.80926400;5.16316200;2023-10-09T05:45:04;17.30;99.90
19363;DHT22;9817;50.80926400;5.16316200;2023-10-09T05:47:52;17.10;99.90
19363;DHT22;9817;50.80926400;5.16316200;2023-10-09T05:50:49;17.00;99.90
19363;DHT22;9817;50.80926400;5.16316200;2023-10-09T05:53:24;17.10;99.90
19363;DHT22;9817;50.80926400;5.16316200;2023-10-09T05:56:08;17.20;99.90
19363;DHT22;9817;50.80926400;5.16316200;2023-10-09T05:58:52;17.20;99.90
19363;DHT22;9817;50.80926400;5.16316200;2023-10-09T06:01:36;17.20;99.90
19363;DHT22;9817;50.80926400;5.16316200;2023-10-09T06:04:20;17.20;99.90
19363;DHT22;9817;50.80926400;5.16316200;2023-10-09T06:06:46;17.30;99.90
19363;DHT22;9817;50.80926400;5.16316200;2023-10-09T06:09:21;17.30;99.90
19363;DHT22;9817;50.80926400;5.16316200;2023-10-09T06:11:48;17.20;99.90
19363;DHT22;9817;50.80926400;5.16316200;2023-10-09T06:14:21;17.30;99.90
19363;DHT22;9817;50.80926400;5.16316200;2023-10-09T06:16:57;17.30;99.90
19363;DHT22;9817;50.80926400;5.16316200;2023-10-09T06:19:23;17.40;99.90
19363;DHT22;9817;50.80926400;5.16316200;2023-10-09T06:21:59;17.30;99.90
19363;DHT22;9817;50.80926400;5.16316200;2023-10-09T06:24:43;17.40;99.90
19363;DHT22;9817;50.80926400;5.16316200;2023-10-09T06:27:21;17.30;99.90
19363;DHT22;9817;50.80926400;5.16316200;2023-10-09T06:29:57;17.30;99.90
19363;DHT22;9817;50.80926400;5.16316200;2023-10-09T06:32:42;17.40;99.90
19363;DHT22;9817;50.80926400;5.16316200;2023-10-09T06:35:20;17.30;99.90
19363;DHT22;9817;50.80926400;5.16316200;2023-10-09T06:37:56;17.40;99.90
19363;DHT22;9817;50.80926400;5.16316200;2023-10-09T06:40:29;17.30;99.90
19363;DHT22;9817;50.80926400;5.16316200;2023-10-09T06:43:14;17.20;99.90
19363;DHT22;9817;50.80926400;5.16316200;2023-10-09T06:45:46;17.30;99.90
19363;DHT22;9817;50.80926400;5.16316200;2023-10-09T06:48:12;17.30;99.90
19363;DHT22;9817;50.80926400;5.16316200;2023-10-09T06:51:09;17.30;99.90
19363;DHT22;9817;50.80926400;5.16316200;2023-10-09T06:53:50;17.40;99.90
19363;DHT22;9817;50.80926400;5.16316200;2023-10-09T06:58:51;17.40;99.90
19363;DHT22;9817;50.80926400;5.16316200;2023-10-09T07:01:21;17.40;99.90
19363;DHT22;9817;50.80926400;5.16316200;2023-10-09T07:03:56;17.40;99.90
19363;DHT22;9817;50.80926400;5.16316200;2023-10-09T07:06:26;17.50;99.90
19363;DHT22;9817;50.80926400;5.16316200;2023-10-09T07:09:01;17.40;99.90
19363;DHT22;9817;50.80926400;5.16316200;2023-10-09T07:11:51;17.50;99.90
19363;DHT22;9817;50.80926400;5.16316200;2023-10-09T07:14:21;17.50;99.90
19363;DHT22;9817;50.80926400;5.16316200;2023-10-09T07:17:03;17.50;99.90
19363;DHT22;9817;50.80926400;5.16316200;2023-10-09T07:19:48;17.60;99.90
19363;DHT22;9817;50.80926400;5.16316200;2023-10-09T07:22:14;17.60;99.90
19363;DHT22;9817;50.80926400;5.16316200;2023-10-09T07:27:29;17.70;99.90
19363;DHT22;9817;50.80926400;5.16316200;2023-10-09T07:30:15;17.90;99.90
19363;DHT22;9817;50.80926400;5.16316200;2023-10-09T07:33:04;18.00;99.90
19363;DHT22;9817;50.80926400;5.16316200;2023-10-09T07:35:41;18.10;99.90
19363;DHT22;9817;50.80926400;5.16316200;2023-10-09T07:38:15;18.20;99.90
19363;DHT22;9817;50.80926400;5.16316200;2023-10-09T07:40:45;18.40;99.90
19363;DHT22;9817;50.80926400;5.16316200;2023-10-09T07:43:34;18.50;99.90
19363;DHT22;9817;50.80926400;5.16316200;2023-10-09T07:46:26;18.60;99.90
19363;DHT22;9817;50.80926400;5.16316200;2023-10-09T07:49:10;18.60;99.90
19363;DHT22;9817;50.80926400;5.16316200;2023-10-09T07:51:38;18.50;99.90
19363;DHT22;9817;50.80926400;5.16316200;2023-10-09T07:54:09;18.60;99.90
19363;DHT22;9817;50.80926400;5.16316200;2023-10-09T07:56:41;18.90;99.90
19363;DHT22;9817;50.80926400;5.16316200;2023-10-09T07:59:09;19.10;99.90
19363;DHT22;9817;50.80926400;5.16316200;2023-10-09T08:01:42;19.10;99.90
19363;DHT22;9817;50.80926400;5.16316200;2023-10-09T08:04:40;19.10;99.90
19363;DHT22;9817;50.80926400;5.16316200;2023-10-09T08:07:16;19.30;99.90
19363;DHT22;9817;50.80926400;5.16316200;2023-10-09T08:09:45;19.50;99.90
19363;DHT22;9817;50.80926400;5.16316200;2023-10-09T08:12:15;19.50;99.90
19363;DHT22;9817;50.80926400;5.16316200;2023-10-09T08:15:19;19.50;99.90
19363;DHT22;9817;50.80926400;5.16316200;2023-10-09T08:20:28;19.90;99.90
19363;DHT22;9817;50.80926400;5.16316200;2023-10-09T08:23:01;19.90;99.90
19363;DHT22;9817;50.80926400;5.16316200;2023-10-09T08:25:30;20.00;99.90
19363;DHT22;9817;50.80926400;5.16316200;2023-10-09T08:28:02;19.90;99.90
19363;DHT22;9817;50.80926400;5.16316200;2023-10-09T08:30:40;19.80;99.90
19363;DHT22;9817;50.80926400;5.16316200;2023-10-09T08:33:21;19.70;99.90
19363;DHT22;9817;50.80926400;5.16316200;2023-10-09T08:35:56;19.90;99.90
19363;DHT22;9817;50.80926400;5.16316200;2023-10-09T08:38:30;20.00;99.90
19363;DHT22;9817;50.80926400;5.16316200;2023-10-09T08:41:09;19.80;99.90
19363;DHT22;9817;50.80926400;5.16316200;2023-10-09T08:43:49;19.60;99.90
19363;DHT22;9817;50.80926400;5.16316200;2023-10-09T08:46:19;19.70;99.90
19363;DHT22;9817;50.80926400;5.16316200;2023-10-09T08:48:46;19.90;99.90
19363;DHT22;9817;50.80926400;5.16316200;2023-10-09T08:51:11;19.90;99.90
19363;DHT22;9817;50.80926400;5.16316200;2023-10-09T08:53:39;20.00;99.90
19363;DHT22;9817;50.80926400;5.16316200;2023-10-09T08:56:09;20.00;99.90
19363;DHT22;9817;50.80926400;5.16316200;2023-10-09T08:58:35;20.20;99.90
19363;DHT22;9817;50.80926400;5.16316200;2023-10-09T09:01:06;20.20;99.90
19363;DHT22;9817;50.80926400;5.16316200;2023-10-09T09:03:41;20.40;99.90
19363;DHT22;9817;50.80926400;5.16316200;2023-10-09T09:06:10;20.60;99.90
19363;DHT22;9817;50.80926400;5.16316200;2023-10-09T09:08:37;20.70;99.90
19363;DHT22;9817;50.80926400;5.16316200;2023-10-09T09:11:09;21.00;99.90
19363;DHT22;9817;50.80926400;5.16316200;2023-10-09T09:16:25;20.80;99.90
19363;DHT22;9817;50.80926400;5.16316200;2023-10-09T09:19:06;20.80;99.90
19363;DHT22;9817;50.80926400;5.16316200;2023-10-09T09:21:37;20.90;99.90
19363;DHT22;9817;50.80926400;5.16316200;2023-10-09T09:24:06;21.10;99.90
19363;DHT22;9817;50.80926400;5.16316200;2023-10-09T09:26:47;21.10;99.90
19363;DHT22;9817;50.80926400;5.16316200;2023-10-09T09:29:45;21.00;99.90
19363;DHT22;9817;50.80926400;5.16316200;2023-10-09T09:32:30;21.00;99.90
19363;DHT22;9817;50.80926400;5.16316200;2023-10-09T09:35:01;21.20;99.90
19363;DHT22;9817;50.80926400;5.16316200;2023-10-09T09:37:30;21.40;99.90
19363;DHT22;9817;50.80926400;5.16316200;2023-10-09T09:40:08;21.60;99.90
19363;DHT22;9817;50.80926400;5.16316200;2023-10-09T09:42:58;21.70;99.90
19363;DHT22;9817;50.80926400;5.16316200;2023-10-09T09:45:35;21.80;99.90
19363;DHT22;9817;50.80926400;5.16316200;2023-10-09T09:48:05;22.00;99.90
19363;DHT22;9817;50.80926400;5.16316200;2023-10-09T09:50:35;22.10;99.90
19363;DHT22;9817;50.80926400;5.16316200;2023-10-09T09:53:04;22.10;99.90
19363;DHT22;9817;50.80926400;5.16316200;2023-10-09T09:55:34;22.00;99.90
19363;DHT22;9817;50.80926400;5.16316200;2023-10-09T09:58:12;22.00;99.90
19363;DHT22;9817;50.80926400;5.16316200;2023-10-09T10:00:45;22.00;99.90
19363;DHT22;9817;50.80926400;5.16316200;2023-10-09T10:03:22;22.20;99.90
19363;DHT22;9817;50.80926400;5.16316200;2023-10-09T10:05:51;22.50;99.90
19363;DHT22;9817;50.80926400;5.16316200;2023-10-09T10:08:21;22.70;99.90
19363;DHT22;9817;50.80926400;5.16316200;2023-10-09T10:10:48;22.90;99.90
19363;DHT22;9817;50.80926400;5.16316200;2023-10-09T10:16:14;23.40;99.90
19363;DHT22;9817;50.80926400;5.16316200;2023-10-09T10:18:57;23.20;99.90
19363;DHT22;9817;50.80926400;5.16316200;2023-10-09T10:21:29;23.40;99.90
19363;DHT22;9817;50.80926400;5.16316200;2023-10-09T10:23:58;23.10;99.90
19363;DHT22;9817;50.80926400;5.16316200;2023-10-09T10:26:36;23.10;99.90
19363;DHT22;9817;50.80926400;5.16316200;2023-10-09T10:29:20;23.00;99.90
19363;DHT22;9817;50.80926400;5.16316200;2023-10-09T10:31:57;23.10;99.90
19363;DHT22;9817;50.80926400;5.16316200;2023-10-09T10:34:24;23.00;99.90
19363;DHT22;9817;50.80926400;5.16316200;2023-10-09T10:36:51;22.70;99.90
19363;DHT22;9817;50.80926400;5.16316200;2023-10-09T10:39:18;22.70;99.90
19363;DHT22;9817;50.80926400;5.16316200;2023-10-09T10:41:54;22.80;99.90
19363;DHT22;9817;50.80926400;5.16316200;2023-10-09T10:44:31;22.80;99.90
19363;DHT22;9817;50.80926400;5.16316200;2023-10-09T10:47:01;22.70;99.90
19363;DHT22;9817;50.80926400;5.16316200;2023-10-09T10:49:28;22.60;99.90
19363;DHT22;9817;50.80926400;5.16316200;2023-10-09T10:52:03;22.70;99.90
19363;DHT22;9817;50.80926400;5.16316200;2023-10-09T10:54:44;22.80;99.90
19363;DHT22;9817;50.80926400;5.16316200;2023-10-09T10:57:20;23.00;99.90
19363;DHT22;9817;50.80926400;5.16316200;2023-10-09T11:00:10;23.00;99.90
19363;DHT22;9817;50.80926400;5.16316200;2023-10-09T11:02:59;22.90;99.90
19363;DHT22;9817;50.80926400;5.16316200;2023-10-09T11:05:41;22.80;99.90
19363;DHT22;9817;50.80926400;5.16316200;2023-10-09T11:08:10;22.70;99.90
19363;DHT22;9817;50.80926400;5.16316200;2023-10-09T11:10:36;22.80;99.90
19363;DHT22;9817;50.80926400;5.16316200;2023-10-09T11:13:24;22.90;99.90
19363;DHT22;9817;50.80926400;5.16316200;2023-10-09T11:15:56;23.00;99.90
19363;DHT22;9817;50.80926400;5.16316200;2023-10-09T11:18:42;22.80;99.90
19363;DHT22;9817;50.80926400;5.16316200;2023-10-09T11:21:15;22.80;99.90
19363;DHT22;9817;50.80926400;5.16316200;2023-10-09T11:23:44;22.80;99.90
19363;DHT22;9817;50.80926400;5.16316200;2023-10-09T11:26:24;22.70;99.90
19363;DHT22;9817;50.80926400;5.16316200;2023-10-09T11:29:13;22.70;99.90
19363;DHT22;9817;50.80926400;5.16316200;2023-10-09T11:31:41;22.60;99.90
19363;DHT22;9817;50.80926400;5.16316200;2023-10-09T11:34:20;22.80;99.90
19363;DHT22;9817;50.80926400;5.16316200;2023-10-09T11:37:15;22.90;99.90
19363;DHT22;9817;50.80926400;5.16316200;2023-10-09T11:39:41;22.90;99.90
19363;DHT22;9817;50.80926400;5.16316200;2023-10-09T11:42:20;23.10;99.90
19363;DHT22;9817;50.80926400;5.16316200;2023-10-09T11:45:02;23.10;99.90
19363;DHT22;9817;50.80926400;5.16316200;2023-10-09T11:47:37;23.30;99.90
19363;DHT22;9817;50.80926400;5.16316200;2023-10-09T11:50:11;23.30;99.90
19363;DHT22;9817;50.80926400;5.16316200;2023-10-09T11:52:56;23.40;99.90
19363;DHT22;9817;50.80926400;5.16316200;2023-10-09T11:55:37;23.30;99.90
19363;DHT22;9817;50.80926400;5.16316200;2023-10-09T11:58:04;23.10;99.90
19363;DHT22;9817;50.80926400;5.16316200;2023-10-09T12:00:31;23.20;99.90
19363;DHT22;9817;50.80926400;5.16316200;2023-10-09T12:03:09;23.40;99.90
19363;DHT22;9817;50.80926400;5.16316200;2023-10-09T12:05:35;23.30;99.90
19363;DHT22;9817;50.80926400;5.16316200;2023-10-09T12:08:02;23.20;99.90
19363;DHT22;9817;50.80926400;5.16316200;2023-10-09T12:10:28;23.30;99.90
19363;DHT22;9817;50.80926400;5.16316200;2023-10-09T12:12:55;23.20;99.90
19363;DHT22;9817;50.80926400;5.16316200;2023-10-09T12:15:26;23.20;99.90
19363;DHT22;9817;50.80926400;5.16316200;2023-10-09T12:18:08;23.20;99.90
19363;DHT22;9817;50.80926400;5.16316200;2023-10-09T12:20:44;23.00;99.90
19363;DHT22;9817;50.80926400;5.16316200;2023-10-09T12:23:17;23.00;99.90
19363;DHT22;9817;50.80926400;5.16316200;2023-10-09T12:25:43;23.20;99.90
19363;DHT22;9817;50.80926400;5.16316200;2023-10-09T12:28:12;23.30;99.90
19363;DHT22;9817;50.80926400;5.16316200;2023-10-09T12:30:38;23.30;99.90
19363;DHT22;9817;50.80926400;5.16316200;2023-10-09T12:33:05;23.30;99.90
19363;DHT22;9817;50.80926400;5.16316200;2023-10-09T12:35:37;23.50;99.90
19363;DHT22;9817;50.80926400;5.16316200;2023-10-09T12:38:03;23.60;99.90
19363;DHT22;9817;50.80926400;5.16316200;2023-10-09T12:40:34;23.30;99.90
19363;DHT22;9817;50.80926400;5.16316200;2023-10-09T12:43:00;23.30;99.90
19363;DHT22;9817;50.80926400;5.16316200;2023-10-09T12:45:29;23.30;99.90
19363;DHT22;9817;50.80926400;5.16316200;2023-10-09T12:48:01;23.40;99.90
19363;DHT22;9817;50.80926400;5.16316200;2023-10-09T12:50:35;23.20;99.90
19363;DHT22;9817;50.80926400;5.16316200;2023-10-09T12:53:07;23.20;99.90
19363;DHT22;9817;50.80926400;5.16316200;2023-10-09T12:55:40;23.30;99.90
19363;DHT22;9817;50.80926400;5.16316200;2023-10-09T12:58:08;23.10;99.90
19363;DHT22;9817;50.80926400;5.16316200;2023-10-09T13:00:37;23.10;99.90
19363;DHT22;9817;50.80926400;5.16316200;2023-10-09T13:03:09;23.20;99.90
19363;DHT22;9817;50.80926400;5.16316200;2023-10-09T13:05:49;23.40;99.90
19363;DHT22;9817;50.80926400;5.16316200;2023-10-09T13:08:25;23.50;99.90
19363;DHT22;9817;50.80926400;5.16316200;2023-10-09T13:10:57;23.60;99.90
19363;DHT22;9817;50.80926400;5.16316200;2023-10-09T13:13:27;23.60;99.90
19363;DHT22;9817;50.80926400;5.16316200;2023-10-09T13:16:14;23.70;99.90
19363;DHT22;9817;50.80926400;5.16316200;2023-10-09T13:18:50;23.60;99.90
19363;DHT22;9817;50.80926400;5.16316200;2023-10-09T13:21:20;23.70;99.90
19363;DHT22;9817;50.80926400;5.16316200;2023-10-09T13:23:47;23.60;99.90
19363;DHT22;9817;50.80926400;5.16316200;2023-10-09T13:26:17;23.60;99.90
19363;DHT22;9817;50.80926400;5.16316200;2023-10-09T13:28:46;23.40;99.90
19363;DHT22;9817;50.80926400;5.16316200;2023-10-09T13:31:15;23.50;99.90
19363;DHT22;9817;50.80926400;5.16316200;2023-10-09T13:33:42;23.30;99.90
19363;DHT22;9817;50.80926400;5.16316200;2023-10-09T13:36:12;23.20;99.90
19363;DHT22;9817;50.80926400;5.16316200;2023-10-09T13:39:00;23.20;99.90
19363;DHT22;9817;50.80926400;5.16316200;2023-10-09T13:41:49;23.20;99.90
19363;DHT22;9817;50.80926400;5.16316200;2023-10-09T13:44:15;23.30;99.90
19363;DHT22;9817;50.80926400;5.16316200;2023-10-09T13:46:41;23.40;99.90
19363;DHT22;9817;50.80926400;5.16316200;2023-10-09T13:49:08;23.40;99.90
19363;DHT22;9817;50.80926400;5.16316200;2023-10-09T13:51:38;23.40;99.90
19363;DHT22;9817;50.80926400;5.16316200;2023-10-09T13:54:10;23.40;99.90
19363;DHT22;9817;50.80926400;5.16316200;2023-10-09T13:56:35;23.50;99.90
19363;DHT22;9817;50.80926400;5.16316200;2023-10-09T13:59:04;23.60;99.90
19363;DHT22;9817;50.80926400;5.16316200;2023-10-09T14:01:36;23.60;99.90
19363;DHT22;9817;50.80926400;5.16316200;2023-10-09T14:04:04;23.50;99.90
19363;DHT22;9817;50.80926400;5.16316200;2023-10-09T14:06:32;23.40;99.90
19363;DHT22;9817;50.80926400;5.16316200;2023-10-09T14:09:03;23.40;99.90
19363;DHT22;9817;50.80926400;5.16316200;2023-10-09T14:11:35;23.50;99.90
19363;DHT22;9817;50.80926400;5.16316200;2023-10-09T14:14:05;23.60;99.90
19363;DHT22;9817;50.80926400;5.16316200;2023-10-09T14:16:35;23.60;99.90
19363;DHT22;9817;50.80926400;5.16316200;2023-10-09T14:19:01;23.50;99.90
19363;DHT22;9817;50.80926400;5.16316200;2023-10-09T14:21:33;23.50;99.90
19363;DHT22;9817;50.80926400;5.16316200;2023-10-09T14:24:04;23.30;99.90
19363;DHT22;9817;50.80926400;5.16316200;2023-10-09T14:26:41;23.20;99.90
19363;DHT22;9817;50.80926400;5.16316200;2023-10-09T14:29:07;23.20;99.90
19363;DHT22;9817;50.80926400;5.16316200;2023-10-09T14:31:32;23.20;99.90
19363;DHT22;9817;50.80926400;5.16316200;2023-10-09T14:34:04;23.30;99.90